Time;durP1;ratioP1;P1;durP2;ratioP2;P2;SDS_P1;SDS_P2;PMS_P1;PMS_P2;Temp;Humidity;BMP_temperature;BMP_pressure;BME280_temperature;BME280_humidity;BME280_pressure;Samples;Min_cycle;Max_cycle;Signal;HPM_P1;HPM_P2
2022/06/23 00:01:47;;;;;;;9.25;4.85;;;;;;;-148.88;72.06;75111.03;4994223;28;20022;-75
2022/06/23 00:04:20;;;;;;;8.93;4.68;;;;;;;-148.88;72.46;75115.09;4994282;28;20080;-75
2022/06/23 00:06:48;;;;;;;7.38;4.82;;;;;;;-148.88;73.57;75115.09;4994966;28;20029;-75
2022/06/23 00:09:31;;;;;;;10.18;4.82;;;;;;;-148.88;73.47;75123.22;4994191;28;20452;-75
2022/06/23 00:11:57;;;;;;;8.07;4.63;;;;;;;-148.88;73.42;75115.09;4995942;28;20026;-75
2022/06/23 00:14:25;;;;;;;11.18;4.57;;;;;;;-148.88;73.47;75109.00;4994291;28;20395;-75
2022/06/23 00:16:50;;;;;;;7.13;4.28;;;;;;;-148.88;73.69;75113.06;4995279;28;20462;-75
2022/06/23 00:19:15;;;;;;;8.95;4.50;;;;;;;-148.88;73.54;75123.22;4994172;28;20503;-75
2022/06/23 00:21:46;;;;;;;9.45;4.88;;;;;;;-148.88;74.49;75135.41;4995116;28;20022;-75
2022/06/23 00:24:23;;;;;;;8.73;5.30;;;;;;;-148.88;75.29;75161.81;4995054;28;20042;-75
2022/06/23 00:26:50;;;;;;;9.13;5.22;;;;;;;-148.88;74.87;75178.06;4995640;28;20476;-75
2022/06/23 00:29:19;;;;;;;8.57;5.15;;;;;;;-148.88;77.19;75220.72;4994879;28;20026;-75
2022/06/23 00:31:53;;;;;;;14.40;5.78;;;;;;;-148.88;79.63;75241.03;4995229;28;20030;-75
2022/06/23 00:34:35;;;;;;;8.63;5.78;;;;;;;-148.88;78.88;75222.75;4995203;28;20027;-75
2022/06/23 00:37:09;;;;;;;6.72;4.72;;;;;;;-148.88;78.11;75208.53;4995710;28;20120;-75
2022/06/23 00:39:57;;;;;;;10.38;5.75;;;;;;;-148.88;79.08;75200.41;4994724;28;20029;-75
2022/06/23 00:42:39;;;;;;;6.30;4.50;;;;;;;-148.88;79.40;75204.47;4995268;28;20034;-75
2022/06/23 00:45:19;;;;;;;8.52;5.07;;;;;;;-148.88;79.19;75190.25;4993484;28;20053;-75
2022/06/23 00:47:57;;;;;;;8.20;4.70;;;;;;;-148.88;78.21;75188.22;4994988;28;20479;-75
2022/06/23 00:50:45;;;;;;;8.63;4.47;;;;;;;-148.88;79.26;75184.16;4994713;28;20038;-76
2022/06/23 00:53:13;;;;;;;6.43;4.72;;;;;;;-148.88;79.37;75171.97;4985087;28;20408;-75
2022/06/23 00:55:41;;;;;;;8.10;5.10;;;;;;;-148.88;78.99;75180.09;4993364;28;20046;-75
2022/06/23 00:58:32;;;;;;;9.20;5.38;;;;;;;-148.88;78.57;75178.06;4994619;28;20037;-74
2022/06/23 01:01:05;;;;;;;10.88;5.00;;;;;;;-148.88;78.72;75176.03;4994699;28;20360;-75
2022/06/23 01:03:39;;;;;;;7.70;5.03;;;;;;;-148.88;79.15;75176.03;4993128;28;20044;-75
2022/06/23 01:06:14;;;;;;;8.10;5.00;;;;;;;-148.88;79.01;75171.97;4994384;28;20487;-75
2022/06/23 01:09:04;;;;;;;6.63;4.95;;;;;;;-148.88;79.10;75178.06;4994280;28;20030;-75
2022/06/23 01:11:44;;;;;;;6.93;4.30;;;;;;;-148.88;79.34;75184.16;4994324;28;20054;-75
2022/06/23 01:14:49;;;;;;;8.73;5.00;;;;;;;-148.88;79.22;75188.22;4994435;28;20092;-75
2022/06/23 01:17:24;;;;;;;6.40;4.30;;;;;;;-148.88;79.04;75188.22;4994600;28;20456;-75
2022/06/23 01:20:30;;;;;;;6.28;4.60;;;;;;;-148.88;79.29;75186.19;4994097;28;20487;-75
2022/06/23 01:23:49;;;;;;;9.05;4.57;;;;;;;-148.88;80.20;75192.28;5060481;23;20053;-87
2022/06/23 01:26:33;;;;;;;8.93;5.28;;;;;;;-148.88;80.55;75194.31;4957891;28;20118;-86
2022/06/23 01:29:17;;;;;;;8.27;4.80;;;;;;;-148.88;80.19;75190.25;4957903;28;20069;-87
2022/06/23 01:31:54;;;;;;;8.65;5.35;;;;;;;-148.88;80.28;75192.28;5004474;28;20092;-88
2022/06/23 01:34:39;;;;;;;8.18;4.75;;;;;;;-148.88;79.56;75188.22;4993347;28;20054;-86
2022/06/23 01:37:18;;;;;;;7.93;5.10;;;;;;;-148.88;79.86;75190.25;4993278;28;20501;-86
2022/06/23 01:39:48;;;;;;;9.65;5.25;;;;;;;-148.88;79.61;75194.31;4994458;28;20019;-86
2022/06/23 01:42:46;;;;;;;9.77;5.57;;;;;;;-148.88;80.35;75192.28;4994403;28;20030;-86
2022/06/23 01:45:32;;;;;;;7.85;5.35;;;;;;;-148.88;79.92;75194.31;4972217;28;20038;-86
2022/06/23 01:48:13;;;;;;;9.48;5.28;;;;;;;-148.88;80.03;75192.28;4993577;28;20026;-86
2022/06/23 01:50:51;;;;;;;10.20;5.72;;;;;;;-148.88;80.10;75192.28;5010147;28;20026;-87
2022/06/23 01:53:16;;;;;;;9.63;4.95;;;;;;;-148.88;80.48;75196.34;4994651;28;20054;-87
2022/06/23 01:56:01;;;;;;;7.13;4.97;;;;;;;-148.88;80.30;75196.34;5010914;28;20077;-87
2022/06/23 01:58:37;;;;;;;7.18;4.93;;;;;;;-148.88;80.49;75206.50;5010635;28;20023;-86
2022/06/23 02:01:14;;;;;;;9.63;5.25;;;;;;;-148.88;80.39;75228.84;4995202;28;20026;-87
2022/06/23 02:03:43;;;;;;;10.30;5.90;;;;;;;-148.88;83.02;75279.59;4994147;28;20023;-86
2022/06/23 02:06:24;;;;;;;11.73;5.50;;;;;;;-148.88;84.06;75289.75;5010087;28;20038;-87
2022/06/23 02:09:04;;;;;;;8.30;5.50;;;;;;;-148.88;84.19;75277.59;4994478;28;20022;-87
2022/06/23 02:11:43;;;;;;;8.43;5.45;;;;;;;-148.88;83.85;75277.59;4994121;28;20029;-86
2022/06/23 02:14:53;;;;;;;8.55;5.57;;;;;;;-148.88;83.07;75265.41;4993030;28;20065;-86
2022/06/23 02:17:30;;;;;;;10.15;5.20;;;;;;;-148.88;83.25;75269.47;4948499;28;20093;-87
2022/06/23 02:20:02;;;;;;;9.50;5.60;;;;;;;-148.88;83.08;75263.38;4993138;28;20019;-87
2022/06/23 02:22:34;;;;;;;8.60;5.38;;;;;;;-148.88;82.99;75267.44;5009772;28;20023;-87
2022/06/23 02:25:22;;;;;;;;;;;;;;;-148.88;83.97;75265.41;4994411;28;20420;-86
2022/06/23 02:27:57;;;;;;;10.82;5.63;;;;;;;-148.88;83.68;75261.34;4993884;28;19910;-86
2022/06/23 02:30:34;;;;;;;13.07;5.80;;;;;;;-148.88;84.52;75261.34;4996824;28;20033;-87
2022/06/23 02:33:05;;;;;;;8.57;5.45;;;;;;;-148.88;83.93;75265.41;4998078;28;20026;-86
2022/06/23 02:36:01;;;;;;;8.18;5.60;;;;;;;-148.88;84.14;75261.34;4997628;28;20026;-87
2022/06/23 02:38:38;;;;;;;8.63;5.50;;;;;;;-148.88;84.75;75267.44;4998254;28;20042;-86
2022/06/23 02:41:08;;;;;;;11.30;5.72;;;;;;;-148.88;84.56;75273.53;5014625;28;20022;-87
2022/06/23 02:43:41;;;;;;;12.75;5.38;;;;;;;-148.88;83.80;75308.03;4998585;28;20456;-86
2022/06/23 02:46:28;;;;;;;9.70;6.05;;;;;;;-148.88;85.13;75340.53;4998569;28;20073;-86
2022/06/23 02:48:57;;;;;;;12.38;6.30;;;;;;;-148.88;86.30;75346.63;5000299;28;20393;-87
2022/06/23 02:51:25;;;;;;;11.15;6.20;;;;;;;-148.88;86.63;75352.72;5013456;28;20045;-87
2022/06/23 02:54:28;;;;;;;10.18;6.72;;;;;;;-148.88;87.20;75358.81;5013629;28;20116;-86
2022/06/23 02:56:54;;;;;;;9.43;6.38;;;;;;;-148.88;88.24;75362.88;4997152;28;20496;-85
2022/06/23 03:02:53;;;;;;;10.68;6.55;;;;;;;-148.88;89.52;75371.00;4999435;28;20042;-85
2022/06/23 03:05:34;;;;;;;12.77;6.82;;;;;;;-148.88;88.64;75366.94;4998912;28;20022;-87
2022/06/23 03:08:11;;;;;;;10.00;6.10;;;;;;;-148.88;88.34;75350.69;4999020;28;20038;-86
2022/06/23 03:10:50;;;;;;;14.00;6.70;;;;;;;-148.88;89.34;75356.78;4998030;28;20049;-87
2022/06/23 03:13:41;;;;;;;13.68;7.38;;;;;;;-148.88;89.09;75350.69;5015698;28;20141;-86
2022/06/23 03:16:20;;;;;;;10.10;6.95;;;;;;;-148.88;88.70;75354.75;5001877;28;20034;-85
2022/06/23 03:19:12;;;;;;;11.55;7.32;;;;;;;-148.88;90.69;75371.00;4999446;28;20030;-84
2022/06/23 03:21:46;;;;;;;10.32;6.88;;;;;;;-148.88;90.80;75395.38;4992442;28;20045;-84
2022/06/23 03:24:22;;;;;;;12.15;7.60;;;;;;;-148.88;91.88;75411.63;5016555;28;20030;-84
2022/06/23 03:26:59;;;;;;;13.63;7.35;;;;;;;-148.88;91.60;75409.59;5001934;28;20030;-85
2022/06/23 03:29:39;;;;;;;9.80;7.15;;;;;;;-148.88;91.85;75405.53;5012694;28;20018;-85
2022/06/23 03:32:15;;;;;;;13.13;7.10;;;;;;;-148.88;91.93;75415.69;4995586;28;20053;-85
2022/06/23 03:35:13;;;;;;;12.63;7.47;;;;;;;-148.88;92.40;75423.81;4996739;28;20026;-86
2022/06/23 03:37:50;;;;;;;11.52;6.45;;;;;;;-148.88;92.85;75403.50;5010949;28;20089;-86
2022/06/23 03:43:32;;;;;;;11.23;6.82;;;;;;;-148.88;92.52;75395.38;4996483;28;20056;-85
2022/06/23 03:46:14;;;;;;;10.27;6.15;;;;;;;-148.88;91.78;75391.31;5011660;28;20117;-87
2022/06/23 03:48:45;;;;;;;11.13;7.15;;;;;;;-148.88;91.68;75391.31;5011558;28;20026;-88
2022/06/23 03:51:25;;;;;;;8.73;6.28;;;;;;;-148.88;91.68;75389.28;4996844;28;20034;-87
2022/06/23 03:54:14;;;;;;;9.55;6.90;;;;;;;-148.88;91.67;75381.16;4995438;28;20030;-86
2022/06/23 03:56:49;;;;;;;9.57;7.25;;;;;;;-148.88;91.78;75375.06;4995111;28;20026;-87
2022/06/23 03:59:19;;;;;;;11.20;7.05;;;;;;;-148.88;91.17;75371.00;4996265;28;20477;-87
2022/06/23 04:01:51;;;;;;;9.82;6.25;;;;;;;-148.88;91.23;75362.88;5011544;28;20141;-85
2022/06/23 04:04:45;;;;;;;12.63;7.40;;;;;;;-148.88;91.10;75358.81;4995541;28;20039;-86
2022/06/23 04:07:33;;;;;;;11.40;7.35;;;;;;;-148.88;90.92;75346.63;4969732;28;20030;-84
2022/06/23 04:10:05;;;;;;;9.77;6.47;;;;;;;-148.88;90.49;75328.34;5012128;28;20057;-87
2022/06/23 04:12:34;;;;;;;11.45;7.30;;;;;;;-148.88;89.52;75318.19;5017841;28;20021;-89
2022/06/23 04:15:08;;;;;;;11.35;7.15;;;;;;;-148.88;89.05;75310.06;5006678;28;20026;-87
2022/06/23 04:17:51;;;;;;;11.35;6.88;;;;;;;-148.88;88.84;75314.13;5002942;28;20022;-87
2022/06/23 04:20:30;;;;;;;11.68;7.35;;;;;;;-148.88;88.16;75308.03;5009312;28;20262;-88
2022/06/23 04:23:03;;;;;;;10.60;7.15;;;;;;;-148.88;88.26;75308.03;5024094;28;20066;-88
2022/06/23 04:26:00;;;;;;;13.30;7.50;;;;;;;-148.88;88.46;75312.09;4997252;28;20489;-87
2022/06/23 04:28:43;;;;;;;12.25;7.10;;;;;;;-148.88;88.33;75316.16;4948117;28;20034;-85
2022/06/23 04:31:14;;;;;;;9.88;6.85;;;;;;;-148.88;88.60;75314.13;5002198;28;20030;-84
2022/06/23 04:33:40;;;;;;;12.57;7.18;;;;;;;-148.88;88.51;75312.09;4999336;28;20019;-85
2022/06/23 04:36:13;;;;;;;12.48;6.93;;;;;;;-148.88;88.97;75314.13;5001326;28;20045;-85
2022/06/23 04:38:42;;;;;;;;;;;;;;;-148.88;88.90;75318.19;5004950;28;20037;-86
2022/06/23 04:41:33;;;;;;;11.93;8.05;;;;;;;-148.88;88.76;75314.13;5000617;28;19913;-85
2022/06/23 04:44:06;;;;;;;12.98;7.60;;;;;;;-148.88;88.85;75310.06;5001430;28;20022;-85
2022/06/23 04:46:38;;;;;;;10.05;7.53;;;;;;;-148.88;88.57;75310.06;4997400;28;20499;-84
2022/06/23 04:49:37;;;;;;;11.25;8.13;;;;;;;-148.88;88.72;75314.13;4995240;28;20034;-84
2022/06/23 04:52:12;;;;;;;13.07;7.13;;;;;;;-148.88;88.03;75301.94;4994752;28;20029;-84
2022/06/23 04:55:02;;;;;;;13.15;7.75;;;;;;;-148.88;87.45;75287.72;4995398;28;20034;-85
2022/06/23 04:58:05;;;;;;;15.00;7.80;;;;;;;-148.88;88.25;75279.59;4995662;28;20077;-84
2022/06/23 05:00:44;;;;;;;11.98;8.18;;;;;;;-148.88;87.89;75279.59;4996888;28;20477;-82
2022/06/23 05:03:28;;;;;;;13.32;8.80;;;;;;;-148.88;87.83;75263.38;4998573;28;20440;-84
2022/06/23 05:06:01;;;;;;;12.88;8.27;;;;;;;-148.88;87.01;75255.25;4998387;28;20036;-83
2022/06/23 05:08:30;;;;;;;;;;;;;;;-148.88;87.24;75255.25;4999450;28;20030;-85
2022/06/23 05:11:05;;;;;;;12.52;7.85;;;;;;;-148.88;87.17;75245.09;4998720;28;19992;-84
2022/06/23 05:13:39;;;;;;;13.07;8.57;;;;;;;-148.88;86.43;75243.06;4999087;28;20022;-84
2022/06/23 05:16:10;;;;;;;9.60;7.85;;;;;;;-148.88;85.94;75222.75;5000020;28;20019;-84
2022/06/23 05:18:46;;;;;;;16.27;7.82;;;;;;;-148.88;85.21;75232.91;4999365;28;20497;-84
2022/06/23 05:21:42;;;;;;;10.60;7.00;;;;;;;-148.88;85.55;75222.75;4999764;28;20539;-84
2022/06/23 05:24:12;;;;;;;12.32;7.20;;;;;;;-148.88;85.14;75216.66;4993087;28;20104;-84
2022/06/23 05:26:46;;;;;;;12.25;7.20;;;;;;;-148.88;84.61;75210.56;4995644;28;20049;-84
2022/06/23 05:29:27;;;;;;;11.77;7.10;;;;;;;-148.88;83.79;75206.50;5012701;28;20026;-83
2022/06/23 05:32:04;;;;;;;12.00;7.38;;;;;;;-148.88;84.12;75198.38;4997846;28;20027;-84
2022/06/23 05:34:34;;;;;;;10.30;7.35;;;;;;;-148.88;82.91;75196.34;4999117;28;20019;-84
2022/06/23 05:37:13;;;;;;;10.00;6.95;;;;;;;-148.88;83.66;75184.16;5000702;28;20026;-84
2022/06/23 05:39:51;;;;;;;11.02;7.03;;;;;;;-148.88;83.33;75178.06;5002335;28;20385;-84
2022/06/23 05:42:21;;;;;;;10.48;6.43;;;;;;;-148.88;83.63;75169.94;5017900;28;20122;-83
2022/06/23 05:44:50;;;;;;;9.48;7.10;;;;;;;-148.88;83.02;75167.91;5019188;28;20489;-84
2022/06/23 05:47:18;;;;;;;9.60;6.85;;;;;;;-148.88;82.09;75161.81;4999439;28;20027;-85
2022/06/23 05:49:50;;;;;;;10.02;6.55;;;;;;;-148.88;81.53;75155.72;4999376;28;20477;-82
2022/06/23 05:52:35;;;;;;;10.18;7.07;;;;;;;-148.88;82.79;75143.53;5000250;28;20033;-84
2022/06/23 05:55:13;;;;;;;11.70;7.00;;;;;;;-148.88;82.49;75139.47;5000051;28;20048;-84
2022/06/23 05:57:49;;;;;;;12.80;6.43;;;;;;;-148.88;82.57;75129.31;5000423;28;20034;-84
2022/06/23 06:00:26;;;;;;;9.32;6.50;;;;;;;-148.88;81.47;75117.13;4998873;28;20108;-84
2022/06/23 06:03:12;;;;;;;9.48;7.22;;;;;;;-148.88;80.66;75102.91;5000460;28;20037;-84
2022/06/23 06:05:44;;;;;;;12.30;6.45;;;;;;;-148.88;81.36;75094.81;5000152;28;20024;-85
2022/06/23 06:08:20;;;;;;;11.43;8.57;;;;;;;-148.88;81.48;75080.59;5019240;28;20030;-84
2022/06/23 06:10:47;;;;;;;11.32;7.20;;;;;;;-148.88;78.72;75070.44;5000942;28;20018;-84
2022/06/23 06:13:35;;;;;;;11.90;6.82;;;;;;;-148.88;79.52;75052.16;4999662;28;20022;-85
2022/06/23 06:16:04;;;;;;;9.18;6.43;;;;;;;-148.88;79.91;75048.09;5000680;28;20027;-84
2022/06/23 06:18:37;;;;;;;9.93;6.25;;;;;;;-148.88;77.55;75025.75;4999086;28;20041;-84
2022/06/23 06:21:06;;;;;;;11.32;6.97;;;;;;;-148.88;77.12;75011.53;4999988;28;20054;-86
2022/06/23 06:23:46;;;;;;;11.20;6.45;;;;;;;-148.88;76.79;74989.19;4999301;28;20076;-83
2022/06/23 06:26:14;;;;;;;11.55;6.80;;;;;;;-148.88;77.13;74985.13;5000795;28;20030;-84
2022/06/23 06:28:39;;;;;;;10.63;5.85;;;;;;;-148.88;76.25;74974.97;4999417;28;20046;-84
2022/06/23 06:31:31;;;;;;;8.13;5.75;;;;;;;-148.88;76.45;74968.88;4999327;28;20493;-84
2022/06/23 06:34:07;;;;;;;12.02;5.60;;;;;;;-148.88;76.26;74952.63;4999879;28;20022;-85
2022/06/23 06:36:44;;;;;;;9.93;5.90;;;;;;;-148.88;76.47;74948.56;5000752;28;20022;-82
2022/06/23 06:39:14;;;;;;;8.45;5.30;;;;;;;-148.88;74.91;74928.28;5014912;28;20057;-85
2022/06/23 06:41:43;;;;;;;10.45;5.65;;;;;;;-148.88;73.59;74885.63;5015672;28;20023;-84
2022/06/23 06:44:10;;;;;;;9.70;5.43;;;;;;;-148.88;72.61;74867.34;4997719;28;20027;-84
2022/06/23 06:46:38;;;;;;;7.95;5.35;;;;;;;-148.88;71.50;74855.16;4996193;28;20033;-83
2022/06/23 06:49:05;;;;;;;8.63;4.85;;;;;;;-148.88;71.55;74836.88;4996651;28;20029;-84
2022/06/23 06:51:30;;;;;;;11.07;5.40;;;;;;;-148.88;70.42;74826.72;4997879;28;20058;-81
2022/06/23 06:54:01;;;;;;;12.27;5.22;;;;;;;-148.88;71.75;74814.53;4997541;28;20037;-84
2022/06/23 06:56:47;;;;;;;9.63;5.00;;;;;;;-148.88;69.08;74804.41;4998121;28;20081;-84
2022/06/23 06:59:27;;;;;;;8.85;4.50;;;;;;;-148.88;69.91;74782.06;4998401;28;20026;-84
2022/06/23 07:02:11;;;;;;;8.13;4.45;;;;;;;-148.88;69.73;74761.75;4998838;28;20072;-84
2022/06/23 07:04:44;;;;;;;7.43;3.92;;;;;;;-148.88;66.83;74731.28;5015124;28;20030;-84
2022/06/23 07:07:17;;;;;;;9.75;3.92;;;;;;;-148.88;67.47;74731.28;4999226;28;20027;-85
2022/06/23 07:09:54;;;;;;;7.40;3.38;;;;;;;-148.88;64.91;74702.84;4999019;28;20022;-84
2022/06/23 07:12:49;;;;;;;11.80;4.22;;;;;;;-148.88;63.78;74688.66;4999331;28;20478;-84
2022/06/23 07:15:31;;;;;;;10.30;3.83;;;;;;;-148.88;63.75;74660.22;5009504;28;20089;-84
2022/06/23 07:18:03;;;;;;;9.07;3.40;;;;;;;-148.88;63.02;74648.03;4997678;28;20120;-85
2022/06/23 07:20:41;;;;;;;6.05;3.40;;;;;;;-148.88;61.24;74617.56;5013997;28;20524;-85
2022/06/23 07:23:22;;;;;;;6.80;3.00;;;;;;;-148.88;60.99;74595.25;5023205;23;20039;-83
2022/06/23 07:25:57;;;;;;;5.60;2.88;;;;;;;-148.88;56.50;74587.13;4996532;28;20030;-83
2022/06/23 07:28:40;;;;;;;4.55;2.63;;;;;;;-148.88;58.34;74566.81;4995337;28;20361;-83
2022/06/23 07:31:12;;;;;;;6.13;3.17;;;;;;;-148.88;61.39;74546.50;4996773;28;20026;-83
2022/06/23 07:33:47;;;;;;;6.07;3.40;;;;;;;-148.88;61.10;74536.34;4996883;28;20026;-82
2022/06/23 07:36:30;;;;;;;6.68;3.30;;;;;;;-148.88;59.18;74509.94;5011561;28;20181;-83
2022/06/23 07:39:17;;;;;;;6.18;2.92;;;;;;;-148.88;59.30;74505.88;5012189;28;20491;-83
2022/06/23 07:42:06;;;;;;;9.23;3.28;;;;;;;-148.88;57.01;74477.47;4994470;28;20081;-83
2022/06/23 07:44:54;;;;;;;7.38;3.08;;;;;;;-148.88;58.59;74465.28;4995786;28;20034;-83
2022/06/23 07:47:20;;;;;;;4.97;3.17;;;;;;;-148.88;57.79;74469.34;4995859;28;20104;-83
2022/06/23 07:49:46;;;;;;;5.00;2.92;;;;;;;-148.88;57.53;74451.06;4996125;28;20069;-82
2022/06/23 07:52:17;;;;;;;5.40;2.70;;;;;;;-148.88;57.00;74444.97;4994671;28;20491;-83
2022/06/23 07:54:43;;;;;;;4.85;2.67;;;;;;;-148.88;57.08;74430.75;4996161;28;20022;-83
2022/06/23 07:57:10;;;;;;;7.07;3.35;;;;;;;-148.88;57.23;74420.59;4995863;28;20034;-82
2022/06/23 07:59:45;;;;;;;6.95;2.95;;;;;;;-148.88;53.54;74386.09;4996016;28;20037;-84
2022/06/23 08:02:48;;;;;;;6.20;2.53;;;;;;;-148.88;52.03;74357.66;4995660;28;20034;-83
2022/06/23 08:05:24;;;;;;;4.72;2.40;;;;;;;-148.88;52.42;74351.56;4981581;28;20045;-83
2022/06/23 08:07:50;;;;;;;3.70;2.33;;;;;;;-148.88;51.29;74331.25;4995612;28;20026;-83
2022/06/23 08:10:20;;;;;;;5.53;2.92;;;;;;;-148.88;51.42;74323.16;4995637;28;20027;-82
2022/06/23 08:12:57;;;;;;;3.97;2.40;;;;;;;-148.88;51.04;74306.91;4994919;28;20018;-83
2022/06/23 08:18:49;;;;;;;5.78;2.22;;;;;;;-148.88;47.83;74217.56;4986812;28;20034;-83
2022/06/23 08:21:20;;;;;;;5.75;2.35;;;;;;;-148.88;48.33;74203.34;4995216;28;20022;-82
2022/06/23 08:23:56;;;;;;;4.13;2.40;;;;;;;-148.88;49.02;74209.44;4994571;28;20592;-83
2022/06/23 08:26:22;;;;;;;4.25;2.60;;;;;;;-148.88;49.24;74172.88;4995103;28;20444;-83
2022/06/23 08:28:53;;;;;;;7.10;2.30;;;;;;;-148.88;47.48;74201.31;4993647;28;20425;-83
2022/06/23 08:31:19;;;;;;;5.43;2.50;;;;;;;-148.88;48.98;74168.84;4993919;28;20088;-83
2022/06/23 08:33:45;;;;;;;4.78;2.35;;;;;;;-148.88;48.11;74156.66;4994346;28;20026;-82
2022/06/23 08:36:15;;;;;;;4.82;1.85;;;;;;;-148.88;47.48;74144.47;4993300;28;20113;-82
2022/06/23 08:38:57;;;;;;;5.45;2.13;;;;;;;-148.88;45.39;74085.59;4995123;28;20033;-84
2022/06/23 08:42:05;;;;;;;5.40;2.20;;;;;;;-148.88;44.94;74109.94;5010036;28;20026;-84
2022/06/23 08:44:49;;;;;;;4.07;1.90;;;;;;;-148.88;45.12;74083.56;4994562;28;20065;-83
2022/06/23 08:47:35;;;;;;;5.22;1.80;;;;;;;-148.88;42.63;74055.13;4993927;28;20057;-83
2022/06/23 08:50:19;;;;;;;3.95;1.75;;;;;;;-148.88;42.77;74059.19;4994630;28;20040;-83
2022/06/23 08:52:59;;;;;;;3.03;1.80;;;;;;;-148.88;42.44;74022.66;5010204;28;20193;-83
2022/06/23 08:55:42;;;;;;;4.72;1.90;;;;;;;-148.88;42.18;74022.66;4995007;28;20426;-83
2022/06/23 08:58:39;;;;;;;4.85;2.20;;;;;;;-148.88;42.34;74008.44;4994189;28;20503;-83
2022/06/23 09:01:16;;;;;;;4.93;1.83;;;;;;;-148.88;41.89;73990.16;4994304;28;20030;-83
2022/06/23 09:04:08;;;;;;;4.05;2.17;;;;;;;-148.88;42.75;73965.78;4993769;28;20018;-84
2022/06/23 09:07:17;;;;;;;7.80;2.10;;;;;;;-148.88;42.14;73925.19;4993803;28;20030;-82
2022/06/23 09:09:51;;;;;;;5.10;1.65;;;;;;;-148.88;40.97;73925.19;4978792;28;20054;-82
2022/06/23 09:12:44;;;;;;;5.93;1.90;;;;;;;-148.88;40.46;73884.59;4992563;28;20022;-83
2022/06/23 09:15:47;;;;;;;2.95;1.88;;;;;;;-148.88;39.44;73872.41;4994081;28;20481;-83
2022/06/23 09:18:33;;;;;;;2.50;1.70;;;;;;;-148.88;39.68;73831.81;4993736;28;20034;-83
2022/06/23 09:21:10;;;;;;;3.88;1.70;;;;;;;-148.88;40.05;73811.50;4992853;28;20026;-84
2022/06/23 09:23:39;;;;;;;7.20;1.85;;;;;;;-148.88;38.82;73776.97;4993844;28;20034;-83
2022/06/23 09:26:08;;;;;;;6.47;1.90;;;;;;;-148.88;38.91;73762.78;4993507;28;20497;-84
2022/06/23 09:28:33;;;;;;;3.50;1.63;;;;;;;-148.88;37.09;73764.81;4992337;28;20452;-83
2022/06/23 09:31:19;;;;;;;3.97;2.00;;;;;;;-148.88;37.29;73740.44;4992744;28;20507;-84
2022/06/23 09:34:18;;;;;;;2.55;1.70;;;;;;;-148.88;37.91;73726.22;4994022;28;20271;-84
2022/06/23 09:37:08;;;;;;;3.45;1.98;;;;;;;-148.88;38.46;73712.00;5009763;28;20101;-84
2022/06/23 09:39:58;;;;;;;4.90;2.00;;;;;;;-148.88;36.51;73689.69;4992885;28;20018;-84
2022/06/23 09:42:39;;;;;;;4.05;2.03;;;;;;;-148.88;37.92;73657.19;4992719;28;20029;-83
2022/06/23 09:45:48;;;;;;;6.97;2.28;;;;;;;-148.88;36.83;73640.97;4993204;28;20034;-84
2022/06/23 09:48:37;;;;;;;6.18;2.10;;;;;;;-148.88;35.42;73610.50;4993564;28;20109;-83
2022/06/23 09:51:18;;;;;;;1.98;1.45;;;;;;;-148.88;35.61;73563.81;4994059;28;20515;-84
2022/06/23 09:54:21;;;;;;;6.43;2.15;;;;;;;-148.88;34.96;73547.56;4994257;28;20037;-82
2022/06/23 09:57:07;;;;;;;3.57;1.70;;;;;;;-148.88;32.75;73515.09;4993843;28;20022;-84
2022/06/23 09:59:59;;;;;;;3.95;1.63;;;;;;;-148.88;32.22;73468.41;4993816;28;20612;-84
2022/06/23 10:02:49;;;;;;;4.03;1.73;;;;;;;-148.88;31.47;73437.94;4992380;28;20124;-84
2022/06/23 10:05:37;;;;;;;4.00;1.98;;;;;;;-148.88;31.57;73456.22;4994137;28;20424;-86
2022/06/23 10:08:18;;;;;;;5.97;1.85;;;;;;;-148.88;31.38;73417.66;4993652;28;20054;-86
2022/06/23 10:11:00;;;;;;;4.18;1.60;;;;;;;-148.88;31.31;73460.28;4994428;28;20489;-85
2022/06/23 10:13:49;;;;;;;3.83;1.70;;;;;;;-148.88;29.82;73411.56;4993788;28;20064;-86
2022/06/23 10:16:41;;;;;;;2.63;1.73;;;;;;;-148.88;30.24;73385.19;4994186;28;20030;-86
2022/06/23 10:19:37;;;;;;;2.05;1.48;;;;;;;-148.88;30.20;73360.81;4993775;28;20030;-85
2022/06/23 10:22:41;;;;;;;5.05;1.50;;;;;;;-148.88;29.16;73370.97;4992050;28;20029;-86
2022/06/23 10:25:09;;;;;;;;;;;;;;;-148.88;29.54;73340.50;4994159;28;20069;-85
2022/06/23 10:27:51;;;;;;;2.40;1.60;;;;;;;-148.88;29.91;73328.34;4993405;28;19910;-85
2022/06/23 10:30:25;;;;;;;8.90;1.90;;;;;;;-148.88;29.09;73360.81;4993704;28;20023;-85
2022/06/23 10:32:59;;;;;;;4.75;1.92;;;;;;;-148.88;29.78;73303.97;4993306;28;20022;-86
2022/06/23 10:35:33;;;;;;;5.03;1.77;;;;;;;-148.88;29.15;73281.66;4993340;28;20077;-86
2022/06/23 10:38:20;;;;;;;2.28;1.52;;;;;;;-148.88;28.80;73320.22;4993496;28;20127;-86
2022/06/23 10:41:24;;;;;;;4.80;1.90;;;;;;;-148.88;29.49;73271.50;4978001;28;20041;-86
2022/06/23 10:44:27;;;;;;;2.15;1.73;;;;;;;-148.88;28.69;73332.41;4993163;28;20503;-85
2022/06/23 10:47:06;;;;;;;2.43;1.60;;;;;;;-148.88;29.26;73287.72;4991977;28;20477;-85
2022/06/23 10:49:46;;;;;;;3.95;1.45;;;;;;;-148.88;28.92;73216.69;4993768;28;20038;-85
2022/06/23 10:52:33;;;;;;;4.95;1.50;;;;;;;-148.88;28.66;73222.78;4996882;28;20030;-87
2022/06/23 10:54:58;;;;;;;2.72;1.60;;;;;;;-148.88;28.17;73230.91;4997207;28;20037;-88
2022/06/23 10:57:42;;;;;;;3.33;1.53;;;;;;;-148.88;28.48;73228.88;4996802;28;20022;-86
2022/06/23 11:00:22;;;;;;;3.03;1.50;;;;;;;-148.88;28.70;73210.59;4996676;28;20755;-86
2022/06/23 11:03:16;;;;;;;5.00;1.63;;;;;;;-148.88;27.97;73257.28;4996672;28;20025;-86
2022/06/23 11:06:10;;;;;;;2.53;1.80;;;;;;;-148.88;28.97;73234.97;4996650;28;20041;-86
2022/06/23 11:08:48;;;;;;;3.55;1.80;;;;;;;-148.88;28.22;73178.13;4997162;28;20061;-86
2022/06/23 11:11:39;;;;;;;4.78;1.80;;;;;;;-148.88;28.35;73190.31;4996704;28;20031;-87
2022/06/23 11:14:12;;;;;;;4.13;1.58;;;;;;;-148.88;27.70;73163.91;5011500;28;20022;-86
2022/06/23 11:17:19;;;;;;;3.50;1.70;;;;;;;-148.88;28.32;73141.59;4996559;28;20034;-86
2022/06/23 11:20:06;;;;;;;4.38;1.60;;;;;;;-148.88;26.92;73167.97;4988601;28;20042;-87
2022/06/23 11:22:53;;;;;;;4.03;1.60;;;;;;;-148.88;27.16;73135.50;4996345;28;20073;-86
2022/06/23 11:25:37;;;;;;;2.33;1.60;;;;;;;-148.88;26.94;73072.56;4995037;28;20034;-86
2022/06/23 11:28:23;;;;;;;2.63;1.65;;;;;;;-148.88;26.84;73096.94;4996793;28;20014;-87
2022/06/23 11:31:16;;;;;;;2.47;1.65;;;;;;;-148.88;26.36;73066.47;4996215;28;20467;-87
2022/06/23 11:33:58;;;;;;;2.72;1.50;;;;;;;-148.88;26.26;73105.03;4995989;28;20508;-87
2022/06/23 11:36:57;;;;;;;3.05;1.98;;;;;;;-148.88;25.96;73060.38;4996345;28;20089;-87
2022/06/23 11:39:57;;;;;;;3.63;1.75;;;;;;;-148.88;26.90;73096.94;4997018;28;20058;-87
2022/06/23 11:42:39;;;;;;;2.55;1.35;;;;;;;-148.88;25.94;73068.50;4996162;28;20393;-86
2022/06/23 11:45:21;;;;;;;4.47;1.52;;;;;;;-148.88;26.01;73088.81;4996180;28;20152;-86
2022/06/23 11:48:14;;;;;;;2.10;1.40;;;;;;;-148.88;25.84;73137.53;4996044;28;20096;-86
2022/06/23 11:50:39;;;;;;;3.83;1.60;;;;;;;-148.88;26.16;73155.78;4995901;28;20117;-87
2022/06/23 11:53:37;;;;;;;4.67;1.57;;;;;;;-148.88;26.66;73174.06;4995665;28;20098;-87
2022/06/23 11:56:16;;;;;;;4.25;1.55;;;;;;;-148.88;26.45;73165.94;4996332;28;20085;-87
2022/06/23 11:58:58;;;;;;;4.55;1.60;;;;;;;-148.88;26.54;73109.09;4996082;28;20024;-87
2022/06/23 12:01:25;;;;;;;2.42;1.75;;;;;;;-148.88;27.91;73044.16;4997306;28;20571;-83
2022/06/23 12:03:55;;;;;;;2.58;1.50;;;;;;;-148.88;25.30;73088.81;4995280;28;20045;-83
2022/06/23 12:06:36;;;;;;;3.75;1.98;;;;;;;-148.88;26.19;73052.28;4995458;28;20019;-83
2022/06/23 12:09:17;;;;;;;4.78;1.48;;;;;;;-148.88;25.98;73088.81;4997109;28;20496;-82
2022/06/23 12:11:43;;;;;;;4.25;1.40;;;;;;;-148.88;26.11;73044.16;4995610;28;20045;-82
2022/06/23 12:14:09;;;;;;;3.10;1.70;;;;;;;-148.88;25.97;73044.16;4996002;28;20505;-83
2022/06/23 12:16:43;;;;;;;3.20;1.80;;;;;;;-148.88;25.87;73025.88;5010497;28;20485;-82
2022/06/23 12:19:15;;;;;;;2.95;1.52;;;;;;;-148.88;25.50;73036.03;4995600;28;20034;-83
2022/06/23 12:21:51;;;;;;;4.93;1.50;;;;;;;-148.88;26.00;73007.63;4995794;28;20030;-83
2022/06/23 12:24:30;;;;;;;2.55;1.30;;;;;;;-148.88;25.63;72952.81;5011609;28;20026;-83